Flight Track Log - Related Links

Times and Time Zones

All times are in EDT time to prevent confusion due to time zone crossing. See the N808V flight status page for this flight to view local times or setup timezone preferences in your user account.

Time Position Orientation Groundspeed Altitude Reporting Facility
EDT Latitude Longitude Course Direction KTS MPH feet Rate Location/Type
Sun 01:29:13 PM 26.5394 -81.8939 320° Northwest 250 288 5,300  Level Miami Center
Sun 01:30:16 PM 26.6136 -81.8706 16° North 256 295 7,600 2,064 Climbing Miami Center
Sun 01:31:18 PM 26.6789 -81.8331 27° Northeast 269 310 9,600 2,081 Climbing Miami Center
Sun 01:32:20 PM 26.7486 -81.7822 33° Northeast 276 318 11,900 2,177 Climbing Miami Center
Sun 01:33:22 PM 26.8189 -81.7267 35° Northeast 285 328 14,100 1,968 Climbing Miami Center
Sun 01:34:00 PM 27.2589 -81.8136 340° North  Level FlightAware
Sun 01:34:25 PM 26.8856 -81.6725 36° Northeast 295 339 16,000  Level Miami Center
Sun 01:35:27 PM 26.9578 -81.6108 37° Northeast 302 348 17,800 1,645 Climbing Miami Center
Sun 01:36:29 PM 27.0294 -81.5536 35° Northeast 312 359 19,400 1,536 Climbing Miami Center
Sun 01:37:32 PM 27.1133 -81.5061 27° Northeast 322 371 21,000 1,584 Climbing Miami Center
Sun 01:38:34 PM 27.2081 -81.4889 North 331 381 22,700 1,452 Climbing Miami Center
Sun 01:39:36 PM 27.2978 -81.5203 343° North 331 381 24,000 1,296 Climbing Miami Center
Sun 01:40:39 PM 27.3822 -81.5794 328° Northwest 338 389 25,400 1,200 Climbing Miami Center
Sun 01:41:41 PM 27.4669 -81.6394 328° Northwest 343 395 26,500 1,016 Climbing Miami Center
Sun 01:42:43 PM 27.5472 -81.6969 328° Northwest 348 400 27,500 1,113 Climbing Miami Center
Sun 01:43:45 PM 27.6347 -81.7597 328° Northwest 353 406 28,800 1,248 Climbing Miami Center
Sun 01:44:48 PM 27.7208 -81.8217 328° Northwest 353 406 30,100 1,152 Climbing Miami Center
Sun 01:45:50 PM 27.8064 -81.8825 328° Northwest 350 403 31,200 823 Climbing Miami Center
Sun 01:46:52 PM 27.8819 -81.9372 327° Northwest 351 404 31,800 440 Climbing Miami Center
Sun 01:47:39 PM 27.9569 -81.9903 328° Northwest 355 409 32,000 449 Climbing Jacksonville Center
Sun 01:48:39 PM 28.0431 -82.0625 323° Northwest 366 421 32,600 800 Climbing Jacksonville Center
Sun 01:49:39 PM 28.1247 -82.1372 321° Northwest 376 433 33,600 950 Climbing Jacksonville Center
Sun 01:50:39 PM 28.2086 -82.2119 322° Northwest 376 433 34,500 900 Climbing Jacksonville Center
Sun 01:51:39 PM 28.2903 -82.2844 322° Northwest 376 433 35,400 750 Climbing Jacksonville Center
Sun 01:52:39 PM 28.3722 -82.3569 322° Northwest 376 433 36,000 300 Climbing Jacksonville Center
Sun 01:53:39 PM 28.4558 -82.4322 322° Northwest 376 433 36,000  Level Jacksonville Center
Sun 01:54:39 PM 28.5458 -82.5119 322° Northwest 386 444 36,000  Level Jacksonville Center
Sun 01:55:39 PM 28.6378 -82.5969 321° Northwest 409 471 36,000  Level Jacksonville Center
Sun 01:56:39 PM 28.7342 -82.6867 321° Northwest 415 478 36,000  Level Jacksonville Center
Sun 01:57:39 PM 28.8303 -82.7717 322° Northwest 425 489 36,000  Level Jacksonville Center
Sun 01:58:39 PM 28.9264 -82.8617 321° Northwest 431 496 36,000  Level Jacksonville Center
Sun 01:59:39 PM 29.0203 -82.9447 322° Northwest 431 496 36,000  Level Jacksonville Center
Sun 02:00:39 PM 29.1142 -83.0328 321° Northwest 431 496 36,000  Level Jacksonville Center
Sun 02:01:40 PM 29.2119 -83.1208 322° Northwest 431 496 36,000  Level Jacksonville Center
Sun 02:02:39 PM 29.3036 -83.2069 321° Northwest 431 496 36,000  Level Jacksonville Center
Sun 02:03:39 PM 29.4017 -83.2931 323° Northwest 431 496 36,000  Level Jacksonville Center
Sun 02:04:39 PM 29.4953 -83.3817 321° Northwest 431 496 36,000  Level Jacksonville Center
Sun 02:05:39 PM 29.5908 -83.4706 321° Northwest 437 503 36,000  Level Jacksonville Center
Sun 02:06:39 PM 29.6844 -83.5572 321° Northwest 437 503 36,000  Level Jacksonville Center
Sun 02:07:39 PM 29.7800 -83.6439 322° Northwest 437 503 36,000  Level Jacksonville Center
Sun 02:08:39 PM 29.8753 -83.7333 321° Northwest 437 503 36,000  Level Jacksonville Center
Sun 02:09:39 PM 29.9708 -83.8206 322° Northwest 437 503 36,000  Level Jacksonville Center
Sun 02:10:39 PM 30.0539 -83.8981 321° Northwest 437 503 36,000  Level Jacksonville Center
Sun 02:11:39 PM 30.1469 -83.9881 320° Northwest 437 503 36,000  Level Jacksonville Center
Sun 02:12:39 PM 30.2403 -84.0756 321° Northwest 437 503 36,000  Level Jacksonville Center
Sun 02:13:39 PM 30.3353 -84.1633 321° Northwest 432 497 36,000  Level Jacksonville Center
Sun 02:14:39 PM 30.4117 -84.2656 311° West 427 491 36,000  Level Jacksonville Center
Sun 02:15:39 PM 30.4811 -84.3797 305° West 433 498 36,000  Level Jacksonville Center
Sun 02:16:39 PM 30.5611 -84.5017 307° West 433 498 36,000  Level Jacksonville Center
Sun 02:17:39 PM 30.6203 -84.6136 302° West 443 510 36,000  Level Jacksonville Center
Sun 02:18:39 PM 30.6875 -84.7261 305° West 443 510 36,000  Level Jacksonville Center
Sun 02:19:39 PM 30.7569 -84.8433 305° West 443 510 36,000  Level Jacksonville Center
Sun 02:20:39 PM 30.8239 -84.9586 304° West 443 510 36,000  Level Jacksonville Center
Sun 02:21:39 PM 30.8931 -85.0714 306° West 443 510 36,000  Level Jacksonville Center
Sun 02:22:39 PM 30.9600 -85.1867 304° West 443 510 36,000  Level Jacksonville Center
Sun 02:23:39 PM 31.0289 -85.3022 305° West 438 504 36,000  Level Jacksonville Center
Sun 02:24:39 PM 31.0933 -85.4156 304° West 438 504 36,000  Level Jacksonville Center
Sun 02:25:39 PM 31.1700 -85.5439 305° West 438 504 36,000  Level Jacksonville Center
Sun 02:26:39 PM 31.2364 -85.6625 303° West 438 504 36,000  Level Jacksonville Center
Sun 02:27:39 PM 31.3006 -85.7786 303° West 438 504 36,000  Level Jacksonville Center
Sun 02:28:39 PM 31.3669 -85.8950 304° West 438 504 36,000  Level Jacksonville Center
Sun 02:30:12 PM 31.4650 -86.0594 305° West 440 506 36,000  Level Atlanta Center
Sun 02:31:12 PM 31.5300 -86.1756 303° West 440 506 36,000  Level Atlanta Center
Sun 02:32:12 PM 31.5989 -86.2917 305° West 440 506 36,000  Level Atlanta Center
Sun 02:33:12 PM 31.6633 -86.4056 304° West 440 506 36,000  Level Atlanta Center
Sun 02:34:12 PM 31.7300 -86.5269 303° West 440 506 36,000  Level Atlanta Center
Sun 02:35:12 PM 31.7689 -86.6575 289° West 432 497 36,000  Level Atlanta Center
Sun 02:36:12 PM 31.8097 -86.7956 289° West 437 503 36,000  Level Atlanta Center
Sun 02:37:12 PM 31.8589 -86.9267 294° West 442 509 36,000  Level Atlanta Center
Sun 02:38:12 PM 31.9272 -87.0414 305° West 429 494 36,000  Level Atlanta Center
Sun 02:39:12 PM 31.9992 -87.1661 304° West 429 494 36,000  Level Atlanta Center
Sun 02:40:12 PM 32.0650 -87.2836 303° West 429 494 36,000  Level Atlanta Center
Sun 02:41:12 PM 32.1308 -87.3989 304° West 429 494 36,000  Level Atlanta Center
Sun 02:42:12 PM 32.1986 -87.5167 304° West 434 499 36,000  Level Atlanta Center
Sun 02:43:12 PM 32.2703 -87.6350 306° West 434 499 36,000  Level Atlanta Center
Sun 02:43:58 PM 32.3069 -87.7006 304° West 429 494 36,000  Level Memphis Center
Sun 02:45:00 PM 32.3869 -87.8411 304° West 430 495 36,000  Level Memphis Center
Sun 02:46:02 PM 32.4533 -87.9578 304° West 430 495 36,000  Level Memphis Center
Sun 02:47:04 PM 32.5197 -88.0753 304° West 430 495 36,000  Level Memphis Center
Sun 02:48:06 PM 32.5861 -88.1911 304° West 430 495 36,000  Level Memphis Center
Sun 02:49:09 PM 32.6506 -88.3072 303° West 429 494 36,000  Level Memphis Center
Sun 02:50:11 PM 32.7275 -88.4453 304° West 427 491 36,000  Level Memphis Center
Sun 02:51:13 PM 32.7911 -88.5606 303° West 424 488 36,000  Level Memphis Center
Sun 02:52:15 PM 32.8547 -88.6753 303° West 422 486 36,000  Level Memphis Center
Sun 02:53:17 PM 32.9178 -88.7903 303° West 422 486 36,000  Level Memphis Center
Sun 02:54:19 PM 32.9817 -88.9047 304° West 421 484 36,000  Level Memphis Center
Sun 02:55:21 PM 33.0581 -89.0442 303° West 421 484 36,000  Level Memphis Center
Sun 02:56:23 PM 33.1225 -89.1597 304° West 421 484 36,000  Level Memphis Center
Sun 02:57:25 PM 33.1858 -89.2742 303° West 421 484 36,000  Level Memphis Center
Sun 02:58:27 PM 33.2489 -89.3903 303° West 421 484 36,000  Level Memphis Center
Sun 02:59:29 PM 33.3258 -89.5308 303° West 423 487 36,000  Level Memphis Center
Sun 03:00:31 PM 33.3917 -89.6489 304° West 425 489 36,000  Level Memphis Center
Sun 03:02:35 PM 33.5172 -89.8850 303° West 426 490 36,000  Level Memphis Center
Sun 03:03:37 PM 33.5797 -90.0022 303° West 426 490 36,000 -480 Level Memphis Center
Sun 03:04:40 PM 33.6550 -90.1442 303° West 426 490 35,000 -1,392 Descending Memphis Center
Sun 03:05:42 PM 33.7206 -90.2678 303° West 436 502 33,100 -1,839 Descending Memphis Center
Sun 03:06:44 PM 33.7878 -90.3933 303° West 445 512 31,200 -1,887 Descending Memphis Center
Sun 03:07:46 PM 33.8608 -90.5325 302° West 448 516 29,200 -1,935 Descending Memphis Center
Sun 03:08:48 PM 33.9281 -90.6592 303° West 449 517 27,200 -1,887 Descending Memphis Center
Sun 03:09:50 PM 33.9933 -90.7839 302° West 445 512 25,300 -1,887 Descending Memphis Center
Sun 03:10:52 PM 34.0578 -90.9083 302° West 440 506 23,300 -2,081 Descending Memphis Center
Sun 03:11:54 PM 34.1211 -91.0300 302° West 432 497 21,000 -2,323 Descending Memphis Center
Sun 03:12:56 PM 34.1911 -91.1656 302° West 404 465 18,500 -2,177 Descending Memphis Center
Sun 03:13:58 PM 34.2453 -91.2697 302° West 376 433 16,500 -1,935 Descending Memphis Center
Sun 03:14:29 PM 34.2725 -91.3264 300° West 348 400 15,500 -1,839 Descending Memphis Center
Sun 03:15:00 PM 34.2967 -91.3683 305° West 354 407 14,600 -1,636 Descending Memphis Center
Sun 03:15:24 PM 34.3144 -91.4114 297° West 330 380 14,000 -1,645 Descending Memphis Center
Sun 03:16:02 PM 34.3436 -91.4633 304° West 336 387 12,900 -1,900 Descending Memphis Center
Sun 03:16:24 PM 34.3653 -91.5086 300° West 326 375 12,100 -1,645 Descending Memphis Center
Sun 03:17:04 PM 34.3908 -91.5553 304° West 327 376 11,200 -1,574 Descending Memphis Center
Sun 03:17:25 PM 34.4069 -91.5914 298° West 289 333 10,500 -1,258 Descending Memphis Center
Sun 03:18:06 PM 34.4311 -91.6336 305° West 287 330 9,900 -400 Descending Memphis Center
Sun 03:18:25 PM 34.4483 -91.6692 300° West 256 295 10,100  Climbing Memphis Center
Sun 03:19:09 PM 34.4772 -91.7247 302° West 271 312 9,900 -537 Descending Memphis Center
Sun 03:19:32 PM 34.4983 -91.7539 311° West 275 316 9,500 -1,161 Descending Memphis Center
Sun 03:20:11 PM 34.5253 -91.7875 314° West 270 311 8,700 -1,279 Descending Memphis Center
Sun 03:20:33 PM 34.5472 -91.8189 310° West 270 311 8,200 -1,258 Descending Memphis Center
Sun 03:21:13 PM 34.5733 -91.8525 313° West 265 305 7,400 -1,500 Descending Memphis Center
Sun 03:21:33 PM 34.5942 -91.8864 307° West 255 293 6,700 -1,481 Descending Memphis Center
Sun 03:22:34 PM 34.6411 -91.9517 311° West 244 281 5,400 -1,212 Descending Memphis Center
Sun 03:23:17 PM 34.6703 -91.9914 312° West 247 284 4,600 -1,180 Descending Memphis Center
Sun 03:23:35 PM 34.6836 -92.0094 312° West 233 268 4,200 -1,065 Descending Memphis Center
Sun 03:24:19 PM 34.7117 -92.0494 310° West 235 270 3,500 -1,100 Descending Memphis Center
Sun 03:24:35 PM 34.7258 -92.0675 314° West 220 253 3,100 -1,161 Descending Memphis Center
Sun 03:25:21 PM 34.7533 -92.1025 314° West 224 258 2,300 -1,082 Descending Memphis Center
Sun 03:25:36 PM 34.7636 -92.1206 305° West 214 246 2,000 -581 Descending Memphis Center
Sun 03:26:23 PM 34.7739 -92.1594 288° West 196 226 1,700 -492 Descending Memphis Center
Sun 03:26:37 PM 34.7744 -92.1756 272° West 132 152 1,500 -387 Descending Memphis Center
Sun 03:27:25 PM 34.7733 -92.2058 267° West 158 182 1,300 -400 Descending Memphis Center
Sun 03:27:37 PM 34.7700 -92.2189 253° West 116 133 1,100 -581 Descending Memphis Center
Sun 03:28:27 PM 34.7558 -92.2378 228° Southwest 135 155 700 -689 Descending Memphis Center
Sun 03:28:38 PM 34.7436 -92.2383 182° South 114 131 400 -1,636 Descending Memphis Center
Sun 03:30:00 PM 34.7294 -92.2248 158° South  Level Estimated

Login

Don't have an account? Register now (free) for customized features, flight alerts, and more!